sensor_id;sensor_type;location;lat;lon;timestamp;P1;durP1;ratioP1;P2;durP2;ratioP2
49193;SDS011;35029;50.804;12.866;2022-07-04T00:00:44;2.00;;;1.80;;
49193;SDS011;35029;50.804;12.866;2022-07-04T00:03:10;2.25;;;1.88;;
49193;SDS011;35029;50.804;12.866;2022-07-04T00:05:35;6.68;;;1.70;;
49193;SDS011;35029;50.804;12.866;2022-07-04T00:08:01;4.97;;;1.90;;
49193;SDS011;35029;50.804;12.866;2022-07-04T00:10:26;2.22;;;1.67;;
49193;SDS011;35029;50.804;12.866;2022-07-04T00:12:52;6.45;;;2.38;;
49193;SDS011;35029;50.804;12.866;2022-07-04T00:15:18;4.05;;;1.80;;
49193;SDS011;35029;50.804;12.866;2022-07-04T00:17:43;2.13;;;1.75;;
49193;SDS011;35029;50.804;12.866;2022-07-04T00:20:10;5.85;;;1.90;;
49193;SDS011;35029;50.804;12.866;2022-07-04T00:22:36;2.15;;;1.75;;
49193;SDS011;35029;50.804;12.866;2022-07-04T00:25:03;2.55;;;1.85;;
49193;SDS011;35029;50.804;12.866;2022-07-04T00:27:29;3.22;;;1.60;;
49193;SDS011;35029;50.804;12.866;2022-07-04T00:29:55;3.97;;;1.90;;
49193;SDS011;35029;50.804;12.866;2022-07-04T00:32:20;2.08;;;1.85;;
49193;SDS011;35029;50.804;12.866;2022-07-04T00:34:46;2.92;;;1.98;;
49193;SDS011;35029;50.804;12.866;2022-07-04T00:37:12;2.00;;;1.50;;
49193;SDS011;35029;50.804;12.866;2022-07-04T00:39:37;3.28;;;1.42;;
49193;SDS011;35029;50.804;12.866;2022-07-04T00:42:03;1.95;;;1.60;;
49193;SDS011;35029;50.804;12.866;2022-07-04T00:44:29;1.75;;;1.50;;
49193;SDS011;35029;50.804;12.866;2022-07-04T00:46:56;3.85;;;1.40;;
49193;SDS011;35029;50.804;12.866;2022-07-04T00:49:21;6.00;;;1.60;;
49193;SDS011;35029;50.804;12.866;2022-07-04T00:51:47;3.92;;;1.77;;
49193;SDS011;35029;50.804;12.866;2022-07-04T00:54:13;2.35;;;1.55;;
49193;SDS011;35029;50.804;12.866;2022-07-04T00:56:42;4.68;;;1.45;;
49193;SDS011;35029;50.804;12.866;2022-07-04T00:59:09;2.55;;;1.65;;
49193;SDS011;35029;50.804;12.866;2022-07-04T01:01:35;3.53;;;1.60;;
49193;SDS011;35029;50.804;12.866;2022-07-04T01:04:01;4.18;;;1.63;;
49193;SDS011;35029;50.804;12.866;2022-07-04T01:06:27;5.55;;;1.45;;
49193;SDS011;35029;50.804;12.866;2022-07-04T01:08:54;5.47;;;1.52;;
49193;SDS011;35029;50.804;12.866;2022-07-04T01:11:20;6.80;;;1.80;;
49193;SDS011;35029;50.804;12.866;2022-07-04T01:13:45;1.90;;;1.40;;
49193;SDS011;35029;50.804;12.866;2022-07-04T01:16:11;4.03;;;1.40;;
49193;SDS011;35029;50.804;12.866;2022-07-04T01:18:38;2.83;;;1.45;;
49193;SDS011;35029;50.804;12.866;2022-07-04T01:21:04;3.58;;;1.63;;
49193;SDS011;35029;50.804;12.866;2022-07-04T01:23:30;2.15;;;1.63;;
49193;SDS011;35029;50.804;12.866;2022-07-04T01:25:57;5.00;;;1.75;;
49193;SDS011;35029;50.804;12.866;2022-07-04T01:28:23;6.93;;;1.75;;
49193;SDS011;35029;50.804;12.866;2022-07-04T01:30:49;2.78;;;1.80;;
49193;SDS011;35029;50.804;12.866;2022-07-04T01:33:15;2.45;;;1.70;;
49193;SDS011;35029;50.804;12.866;2022-07-04T01:35:46;2.85;;;1.50;;
49193;SDS011;35029;50.804;12.866;2022-07-04T01:38:12;3.95;;;1.60;;
49193;SDS011;35029;50.804;12.866;2022-07-04T01:40:38;1.30;;;1.20;;
49193;SDS011;35029;50.804;12.866;2022-07-04T01:43:04;3.25;;;1.30;;
49193;SDS011;35029;50.804;12.866;2022-07-04T01:45:30;7.18;;;1.85;;
49193;SDS011;35029;50.804;12.866;2022-07-04T01:47:59;3.70;;;1.40;;
49193;SDS011;35029;50.804;12.866;2022-07-04T01:50:26;2.22;;;1.40;;
49193;SDS011;35029;50.804;12.866;2022-07-04T01:52:51;4.15;;;1.73;;
49193;SDS011;35029;50.804;12.866;2022-07-04T01:55:17;3.28;;;1.60;;
49193;SDS011;35029;50.804;12.866;2022-07-04T01:57:44;4.03;;;1.73;;
49193;SDS011;35029;50.804;12.866;2022-07-04T02:00:09;1.80;;;1.42;;
49193;SDS011;35029;50.804;12.866;2022-07-04T02:02:56;2.70;;;1.63;;
49193;SDS011;35029;50.804;12.866;2022-07-04T02:05:22;1.70;;;1.33;;
49193;SDS011;35029;50.804;12.866;2022-07-04T02:07:50;4.07;;;1.60;;
49193;SDS011;35029;50.804;12.866;2022-07-04T02:10:16;4.15;;;1.45;;
49193;SDS011;35029;50.804;12.866;2022-07-04T02:12:42;3.55;;;1.40;;
49193;SDS011;35029;50.804;12.866;2022-07-04T02:15:26;2.90;;;1.30;;
49193;SDS011;35029;50.804;12.866;2022-07-04T02:17:53;1.40;;;1.30;;
49193;SDS011;35029;50.804;12.866;2022-07-04T02:20:20;1.80;;;1.52;;
49193;SDS011;35029;50.804;12.866;2022-07-04T02:22:46;2.10;;;1.63;;
49193;SDS011;35029;50.804;12.866;2022-07-04T02:25:11;4.75;;;2.28;;
49193;SDS011;35029;50.804;12.866;2022-07-04T02:27:37;3.25;;;1.38;;
49193;SDS011;35029;50.804;12.866;2022-07-04T02:30:04;2.17;;;1.50;;
49193;SDS011;35029;50.804;12.866;2022-07-04T02:32:30;2.45;;;1.50;;
49193;SDS011;35029;50.804;12.866;2022-07-04T02:34:56;1.60;;;1.30;;
49193;SDS011;35029;50.804;12.866;2022-07-04T02:37:22;3.03;;;2.22;;
49193;SDS011;35029;50.804;12.866;2022-07-04T02:39:48;6.03;;;1.88;;
49193;SDS011;35029;50.804;12.866;2022-07-04T02:42:13;1.83;;;1.50;;
49193;SDS011;35029;50.804;12.866;2022-07-04T02:44:39;2.38;;;1.65;;
49193;SDS011;35029;50.804;12.866;2022-07-04T02:47:04;2.60;;;1.98;;
49193;SDS011;35029;50.804;12.866;2022-07-04T02:49:30;2.95;;;2.08;;
49193;SDS011;35029;50.804;12.866;2022-07-04T02:51:55;3.42;;;1.50;;
49193;SDS011;35029;50.804;12.866;2022-07-04T02:54:21;2.58;;;1.77;;
49193;SDS011;35029;50.804;12.866;2022-07-04T02:56:46;2.63;;;1.88;;
49193;SDS011;35029;50.804;12.866;2022-07-04T02:59:12;5.85;;;2.03;;
49193;SDS011;35029;50.804;12.866;2022-07-04T03:01:37;4.80;;;2.33;;
49193;SDS011;35029;50.804;12.866;2022-07-04T03:04:04;2.22;;;1.83;;
49193;SDS011;35029;50.804;12.866;2022-07-04T03:06:29;1.95;;;1.80;;
49193;SDS011;35029;50.804;12.866;2022-07-04T03:08:55;4.65;;;2.03;;
49193;SDS011;35029;50.804;12.866;2022-07-04T03:11:21;2.70;;;1.83;;
49193;SDS011;35029;50.804;12.866;2022-07-04T03:13:47;3.45;;;1.98;;
49193;SDS011;35029;50.804;12.866;2022-07-04T03:16:12;5.03;;;2.42;;
49193;SDS011;35029;50.804;12.866;2022-07-04T03:18:38;2.58;;;2.30;;
49193;SDS011;35029;50.804;12.866;2022-07-04T03:21:03;4.63;;;2.10;;
49193;SDS011;35029;50.804;12.866;2022-07-04T03:23:30;6.18;;;2.70;;
49193;SDS011;35029;50.804;12.866;2022-07-04T03:25:56;3.33;;;2.25;;
49193;SDS011;35029;50.804;12.866;2022-07-04T03:28:22;6.25;;;2.45;;
49193;SDS011;35029;50.804;12.866;2022-07-04T03:30:47;4.45;;;2.63;;
49193;SDS011;35029;50.804;12.866;2022-07-04T03:33:13;7.70;;;3.03;;
49193;SDS011;35029;50.804;12.866;2022-07-04T03:35:39;5.60;;;2.90;;
49193;SDS011;35029;50.804;12.866;2022-07-04T03:38:04;3.55;;;2.78;;
49193;SDS011;35029;50.804;12.866;2022-07-04T03:40:30;4.93;;;2.22;;
49193;SDS011;35029;50.804;12.866;2022-07-04T03:42:57;6.07;;;2.42;;
49193;SDS011;35029;50.804;12.866;2022-07-04T03:45:26;7.30;;;2.85;;
49193;SDS011;35029;50.804;12.866;2022-07-04T03:47:51;4.30;;;3.10;;
49193;SDS011;35029;50.804;12.866;2022-07-04T03:50:17;3.67;;;2.65;;
49193;SDS011;35029;50.804;12.866;2022-07-04T03:52:42;2.47;;;2.10;;
49193;SDS011;35029;50.804;12.866;2022-07-04T03:55:09;4.00;;;2.97;;
49193;SDS011;35029;50.804;12.866;2022-07-04T03:57:34;3.63;;;2.53;;
49193;SDS011;35029;50.804;12.866;2022-07-04T04:00:00;2.67;;;2.40;;
49193;SDS011;35029;50.804;12.866;2022-07-04T04:02:37;3.78;;;2.63;;
49193;SDS011;35029;50.804;12.866;2022-07-04T04:05:03;4.18;;;2.95;;
49193;SDS011;35029;50.804;12.866;2022-07-04T04:07:48;7.80;;;3.10;;
49193;SDS011;35029;50.804;12.866;2022-07-04T04:10:13;3.42;;;2.28;;
49193;SDS011;35029;50.804;12.866;2022-07-04T04:12:39;2.58;;;1.92;;
49193;SDS011;35029;50.804;12.866;2022-07-04T04:15:05;3.90;;;2.72;;
49193;SDS011;35029;50.804;12.866;2022-07-04T04:17:30;5.22;;;2.70;;
49193;SDS011;35029;50.804;12.866;2022-07-04T04:19:56;4.35;;;2.20;;
49193;SDS011;35029;50.804;12.866;2022-07-04T04:22:21;4.05;;;2.65;;
49193;SDS011;35029;50.804;12.866;2022-07-04T04:24:47;6.18;;;2.83;;
49193;SDS011;35029;50.804;12.866;2022-07-04T04:27:13;4.25;;;2.97;;
49193;SDS011;35029;50.804;12.866;2022-07-04T04:29:38;3.95;;;3.15;;
49193;SDS011;35029;50.804;12.866;2022-07-04T04:32:04;5.35;;;3.05;;
49193;SDS011;35029;50.804;12.866;2022-07-04T04:34:30;5.82;;;3.67;;
49193;SDS011;35029;50.804;12.866;2022-07-04T04:36:56;5.97;;;3.03;;
49193;SDS011;35029;50.804;12.866;2022-07-04T04:39:21;4.75;;;3.05;;
49193;SDS011;35029;50.804;12.866;2022-07-04T04:41:47;3.80;;;3.13;;
49193;SDS011;35029;50.804;12.866;2022-07-04T04:44:13;5.00;;;3.13;;
49193;SDS011;35029;50.804;12.866;2022-07-04T04:46:38;5.38;;;2.95;;
49193;SDS011;35029;50.804;12.866;2022-07-04T04:49:04;4.50;;;3.15;;
49193;SDS011;35029;50.804;12.866;2022-07-04T04:51:29;3.60;;;2.97;;
49193;SDS011;35029;50.804;12.866;2022-07-04T04:53:55;4.38;;;3.22;;
49193;SDS011;35029;50.804;12.866;2022-07-04T04:56:21;5.90;;;3.67;;
49193;SDS011;35029;50.804;12.866;2022-07-04T04:58:47;5.18;;;2.90;;
49193;SDS011;35029;50.804;12.866;2022-07-04T05:01:12;5.50;;;3.00;;
49193;SDS011;35029;50.804;12.866;2022-07-04T05:03:38;5.63;;;3.33;;
49193;SDS011;35029;50.804;12.866;2022-07-04T05:06:03;4.88;;;3.58;;
49193;SDS011;35029;50.804;12.866;2022-07-04T05:08:29;5.57;;;3.10;;
49193;SDS011;35029;50.804;12.866;2022-07-04T05:10:54;3.83;;;2.50;;
49193;SDS011;35029;50.804;12.866;2022-07-04T05:13:20;5.25;;;3.95;;
49193;SDS011;35029;50.804;12.866;2022-07-04T05:15:46;7.82;;;3.72;;
49193;SDS011;35029;50.804;12.866;2022-07-04T05:18:12;4.50;;;3.10;;
49193;SDS011;35029;50.804;12.866;2022-07-04T05:20:38;6.65;;;3.40;;
49193;SDS011;35029;50.804;12.866;2022-07-04T05:23:04;5.10;;;3.50;;
49193;SDS011;35029;50.804;12.866;2022-07-04T05:25:31;4.20;;;3.03;;
49193;SDS011;35029;50.804;12.866;2022-07-04T05:27:57;6.10;;;3.40;;
49193;SDS011;35029;50.804;12.866;2022-07-04T05:30:23;3.50;;;3.10;;
49193;SDS011;35029;50.804;12.866;2022-07-04T05:32:49;4.90;;;3.47;;
49193;SDS011;35029;50.804;12.866;2022-07-04T05:35:14;3.33;;;3.03;;
49193;SDS011;35029;50.804;12.866;2022-07-04T05:37:40;9.35;;;3.47;;
49193;SDS011;35029;50.804;12.866;2022-07-04T05:40:06;6.35;;;3.65;;
49193;SDS011;35029;50.804;12.866;2022-07-04T05:42:33;5.53;;;3.08;;
49193;SDS011;35029;50.804;12.866;2022-07-04T05:44:59;4.55;;;3.00;;
49193;SDS011;35029;50.804;12.866;2022-07-04T05:47:25;4.32;;;2.80;;
49193;SDS011;35029;50.804;12.866;2022-07-04T05:49:51;7.18;;;3.00;;
49193;SDS011;35029;50.804;12.866;2022-07-04T05:52:16;6.40;;;2.97;;
49193;SDS011;35029;50.804;12.866;2022-07-04T05:54:42;4.63;;;3.50;;
49193;SDS011;35029;50.804;12.866;2022-07-04T05:57:07;4.28;;;2.92;;
49193;SDS011;35029;50.804;12.866;2022-07-04T05:59:33;4.60;;;3.60;;
49193;SDS011;35029;50.804;12.866;2022-07-04T06:01:59;5.47;;;2.97;;
49193;SDS011;35029;50.804;12.866;2022-07-04T06:04:25;2.75;;;2.55;;
49193;SDS011;35029;50.804;12.866;2022-07-04T06:06:51;3.33;;;2.50;;
49193;SDS011;35029;50.804;12.866;2022-07-04T06:09:16;3.60;;;2.78;;
49193;SDS011;35029;50.804;12.866;2022-07-04T06:11:42;4.18;;;2.80;;
49193;SDS011;35029;50.804;12.866;2022-07-04T06:14:09;5.35;;;3.10;;
49193;SDS011;35029;50.804;12.866;2022-07-04T06:16:35;3.67;;;2.72;;
49193;SDS011;35029;50.804;12.866;2022-07-04T06:19:00;2.90;;;2.05;;
49193;SDS011;35029;50.804;12.866;2022-07-04T06:21:26;2.08;;;1.88;;
49193;SDS011;35029;50.804;12.866;2022-07-04T06:23:52;3.05;;;1.90;;
49193;SDS011;35029;50.804;12.866;2022-07-04T06:26:18;6.63;;;3.00;;
49193;SDS011;35029;50.804;12.866;2022-07-04T06:28:43;2.65;;;2.13;;
49193;SDS011;35029;50.804;12.866;2022-07-04T06:31:10;8.02;;;2.95;;
49193;SDS011;35029;50.804;12.866;2022-07-04T06:33:36;3.08;;;2.53;;
49193;SDS011;35029;50.804;12.866;2022-07-04T06:36:23;4.13;;;2.38;;
49193;SDS011;35029;50.804;12.866;2022-07-04T06:38:49;4.60;;;2.08;;
49193;SDS011;35029;50.804;12.866;2022-07-04T06:41:14;2.78;;;2.08;;
49193;SDS011;35029;50.804;12.866;2022-07-04T06:43:40;4.85;;;2.28;;
49193;SDS011;35029;50.804;12.866;2022-07-04T06:46:06;5.35;;;2.03;;
49193;SDS011;35029;50.804;12.866;2022-07-04T06:48:31;4.90;;;2.42;;
49193;SDS011;35029;50.804;12.866;2022-07-04T06:50:58;4.00;;;1.90;;
49193;SDS011;35029;50.804;12.866;2022-07-04T06:53:24;4.55;;;2.00;;
49193;SDS011;35029;50.804;12.866;2022-07-04T06:55:50;4.05;;;1.70;;
49193;SDS011;35029;50.804;12.866;2022-07-04T06:58:16;3.95;;;2.10;;
49193;SDS011;35029;50.804;12.866;2022-07-04T07:00:42;4.43;;;2.50;;
49193;SDS011;35029;50.804;12.866;2022-07-04T07:03:09;4.43;;;2.13;;
49193;SDS011;35029;50.804;12.866;2022-07-04T07:05:35;2.75;;;2.17;;
49193;SDS011;35029;50.804;12.866;2022-07-04T07:08:05;2.83;;;1.80;;
49193;SDS011;35029;50.804;12.866;2022-07-04T07:10:31;2.22;;;1.75;;
49193;SDS011;35029;50.804;12.866;2022-07-04T07:13:03;10.32;;;2.13;;
49193;SDS011;35029;50.804;12.866;2022-07-04T07:15:28;3.17;;;1.55;;
49193;SDS011;35029;50.804;12.866;2022-07-04T07:17:54;2.88;;;2.03;;
49193;SDS011;35029;50.804;12.866;2022-07-04T07:20:20;2.95;;;2.05;;
49193;SDS011;35029;50.804;12.866;2022-07-04T07:22:46;3.50;;;1.67;;
49193;SDS011;35029;50.804;12.866;2022-07-04T07:25:12;3.55;;;2.50;;
49193;SDS011;35029;50.804;12.866;2022-07-04T07:27:38;3.45;;;1.92;;
49193;SDS011;35029;50.804;12.866;2022-07-04T07:30:06;2.72;;;2.47;;
49193;SDS011;35029;50.804;12.866;2022-07-04T07:32:34;7.15;;;2.00;;
49193;SDS011;35029;50.804;12.866;2022-07-04T07:34:59;4.43;;;1.73;;
49193;SDS011;35029;50.804;12.866;2022-07-04T07:37:25;4.68;;;1.85;;
49193;SDS011;35029;50.804;12.866;2022-07-04T07:39:51;3.92;;;1.70;;
49193;SDS011;35029;50.804;12.866;2022-07-04T07:42:17;3.63;;;1.90;;
49193;SDS011;35029;50.804;12.866;2022-07-04T07:44:43;3.40;;;1.77;;
49193;SDS011;35029;50.804;12.866;2022-07-04T07:47:14;4.70;;;2.13;;
49193;SDS011;35029;50.804;12.866;2022-07-04T07:49:42;4.30;;;2.50;;
49193;SDS011;35029;50.804;12.866;2022-07-04T07:52:09;9.13;;;2.15;;
49193;SDS011;35029;50.804;12.866;2022-07-04T07:54:35;5.25;;;2.03;;
49193;SDS011;35029;50.804;12.866;2022-07-04T07:57:00;1.92;;;1.80;;
49193;SDS011;35029;50.804;12.866;2022-07-04T07:59:26;7.10;;;2.30;;
49193;SDS011;35029;50.804;12.866;2022-07-04T08:01:52;3.00;;;1.63;;
49193;SDS011;35029;50.804;12.866;2022-07-04T08:04:17;2.95;;;1.77;;
49193;SDS011;35029;50.804;12.866;2022-07-04T08:07:07;2.75;;;1.90;;
49193;SDS011;35029;50.804;12.866;2022-07-04T08:09:36;2.70;;;1.70;;
49193;SDS011;35029;50.804;12.866;2022-07-04T08:12:02;3.25;;;1.70;;
49193;SDS011;35029;50.804;12.866;2022-07-04T08:14:30;7.70;;;1.88;;
49193;SDS011;35029;50.804;12.866;2022-07-04T08:16:57;3.30;;;1.70;;
49193;SDS011;35029;50.804;12.866;2022-07-04T08:19:23;3.97;;;1.80;;
49193;SDS011;35029;50.804;12.866;2022-07-04T08:21:50;4.82;;;2.15;;
49193;SDS011;35029;50.804;12.866;2022-07-04T08:24:17;5.07;;;2.13;;
49193;SDS011;35029;50.804;12.866;2022-07-04T08:26:43;6.50;;;2.10;;
49193;SDS011;35029;50.804;12.866;2022-07-04T08:29:08;2.83;;;2.08;;
49193;SDS011;35029;50.804;12.866;2022-07-04T08:31:34;3.15;;;1.83;;
49193;SDS011;35029;50.804;12.866;2022-07-04T08:34:00;4.40;;;2.65;;
49193;SDS011;35029;50.804;12.866;2022-07-04T08:36:25;3.00;;;1.73;;
49193;SDS011;35029;50.804;12.866;2022-07-04T08:38:51;2.92;;;1.67;;
49193;SDS011;35029;50.804;12.866;2022-07-04T08:41:17;4.38;;;2.22;;
49193;SDS011;35029;50.804;12.866;2022-07-04T08:43:44;3.97;;;1.50;;
49193;SDS011;35029;50.804;12.866;2022-07-04T08:46:12;5.53;;;2.42;;
49193;SDS011;35029;50.804;12.866;2022-07-04T08:48:42;3.38;;;2.13;;
49193;SDS011;35029;50.804;12.866;2022-07-04T08:51:19;9.07;;;2.22;;
49193;SDS011;35029;50.804;12.866;2022-07-04T08:54:00;2.15;;;1.63;;
49193;SDS011;35029;50.804;12.866;2022-07-04T08:56:47;2.85;;;2.00;;
49193;SDS011;35029;50.804;12.866;2022-07-04T08:59:32;4.95;;;1.55;;
49193;SDS011;35029;50.804;12.866;2022-07-04T09:01:58;3.58;;;1.92;;
49193;SDS011;35029;50.804;12.866;2022-07-04T09:04:23;3.15;;;1.80;;
49193;SDS011;35029;50.804;12.866;2022-07-04T09:06:49;2.97;;;1.85;;
49193;SDS011;35029;50.804;12.866;2022-07-04T09:09:16;5.90;;;2.25;;
49193;SDS011;35029;50.804;12.866;2022-07-04T09:11:43;3.38;;;1.77;;
49193;SDS011;35029;50.804;12.866;2022-07-04T09:14:08;3.25;;;2.03;;
49193;SDS011;35029;50.804;12.866;2022-07-04T09:16:34;3.22;;;1.88;;
49193;SDS011;35029;50.804;12.866;2022-07-04T09:18:59;2.85;;;1.90;;
49193;SDS011;35029;50.804;12.866;2022-07-04T09:21:41;2.70;;;1.65;;
49193;SDS011;35029;50.804;12.866;2022-07-04T09:24:09;8.75;;;2.28;;
49193;SDS011;35029;50.804;12.866;2022-07-04T09:26:35;2.42;;;1.65;;
49193;SDS011;35029;50.804;12.866;2022-07-04T09:29:05;5.45;;;1.95;;
49193;SDS011;35029;50.804;12.866;2022-07-04T09:31:30;2.22;;;1.75;;
49193;SDS011;35029;50.804;12.866;2022-07-04T09:34:00;2.85;;;1.77;;
49193;SDS011;35029;50.804;12.866;2022-07-04T09:36:29;6.28;;;1.35;;
49193;SDS011;35029;50.804;12.866;2022-07-04T09:39:10;3.15;;;1.73;;
49193;SDS011;35029;50.804;12.866;2022-07-04T09:41:58;4.10;;;1.50;;
49193;SDS011;35029;50.804;12.866;2022-07-04T09:44:27;5.07;;;1.70;;
49193;SDS011;35029;50.804;12.866;2022-07-04T09:46:54;2.00;;;1.33;;
49193;SDS011;35029;50.804;12.866;2022-07-04T09:49:22;4.53;;;1.50;;
49193;SDS011;35029;50.804;12.866;2022-07-04T09:51:49;1.90;;;1.70;;
49193;SDS011;35029;50.804;12.866;2022-07-04T09:54:26;4.57;;;1.27;;
49193;SDS011;35029;50.804;12.866;2022-07-04T09:56:58;2.45;;;1.63;;
49193;SDS011;35029;50.804;12.866;2022-07-04T09:59:26;3.95;;;2.20;;
49193;SDS011;35029;50.804;12.866;2022-07-04T10:02:10;1.77;;;1.65;;
49193;SDS011;35029;50.804;12.866;2022-07-04T10:04:43;1.85;;;1.30;;
49193;SDS011;35029;50.804;12.866;2022-07-04T10:07:11;2.15;;;1.70;;
49193;SDS011;35029;50.804;12.866;2022-07-04T10:09:36;1.63;;;1.30;;
49193;SDS011;35029;50.804;12.866;2022-07-04T10:12:02;3.55;;;1.67;;
49193;SDS011;35029;50.804;12.866;2022-07-04T10:14:28;7.05;;;1.73;;
49193;SDS011;35029;50.804;12.866;2022-07-04T10:16:54;4.03;;;1.73;;
49193;SDS011;35029;50.804;12.866;2022-07-04T10:19:20;3.60;;;1.92;;
49193;SDS011;35029;50.804;12.866;2022-07-04T10:21:47;3.50;;;1.65;;
49193;SDS011;35029;50.804;12.866;2022-07-04T10:24:13;2.63;;;1.35;;
49193;SDS011;35029;50.804;12.866;2022-07-04T10:26:38;3.92;;;1.40;;
49193;SDS011;35029;50.804;12.866;2022-07-04T10:29:04;3.67;;;1.75;;
49193;SDS011;35029;50.804;12.866;2022-07-04T10:31:29;4.20;;;1.60;;
49193;SDS011;35029;50.804;12.866;2022-07-04T10:33:58;4.95;;;1.80;;
49193;SDS011;35029;50.804;12.866;2022-07-04T10:36:26;2.60;;;1.75;;
49193;SDS011;35029;50.804;12.866;2022-07-04T10:38:57;1.88;;;1.60;;
49193;SDS011;35029;50.804;12.866;2022-07-04T10:41:25;2.83;;;1.58;;
49193;SDS011;35029;50.804;12.866;2022-07-04T10:46:22;2.03;;;1.40;;
49193;SDS011;35029;50.804;12.866;2022-07-04T10:56:40;3.75;;;1.65;;
49193;SDS011;35029;50.804;12.866;2022-07-04T10:59:10;2.28;;;1.88;;
49193;SDS011;35029;50.804;12.866;2022-07-04T11:01:37;2.83;;;1.30;;
49193;SDS011;35029;50.804;12.866;2022-07-04T11:04:03;5.40;;;1.55;;
49193;SDS011;35029;50.804;12.866;2022-07-04T11:11:59;2.28;;;1.60;;
49193;SDS011;35029;50.804;12.866;2022-07-04T11:16:56;3.03;;;1.48;;
49193;SDS011;35029;50.804;12.866;2022-07-04T11:19:22;5.05;;;1.70;;
49193;SDS011;35029;50.804;12.866;2022-07-04T11:21:48;2.05;;;1.38;;
49193;SDS011;35029;50.804;12.866;2022-07-04T11:24:13;1.70;;;1.30;;
49193;SDS011;35029;50.804;12.866;2022-07-04T11:26:39;3.42;;;1.70;;
49193;SDS011;35029;50.804;12.866;2022-07-04T11:29:05;5.70;;;1.40;;
49193;SDS011;35029;50.804;12.866;2022-07-04T11:31:37;5.05;;;1.60;;
49193;SDS011;35029;50.804;12.866;2022-07-04T11:34:04;5.45;;;1.42;;
49193;SDS011;35029;50.804;12.866;2022-07-04T11:36:30;4.43;;;1.45;;
49193;SDS011;35029;50.804;12.866;2022-07-04T11:38:56;3.65;;;1.48;;
49193;SDS011;35029;50.804;12.866;2022-07-04T11:41:24;3.03;;;1.40;;
49193;SDS011;35029;50.804;12.866;2022-07-04T11:44:14;5.40;;;1.48;;
49193;SDS011;35029;50.804;12.866;2022-07-04T11:47:08;4.40;;;1.52;;
49193;SDS011;35029;50.804;12.866;2022-07-04T11:49:34;4.75;;;1.67;;
49193;SDS011;35029;50.804;12.866;2022-07-04T11:52:00;3.55;;;1.63;;
49193;SDS011;35029;50.804;12.866;2022-07-04T11:54:26;4.72;;;1.75;;
49193;SDS011;35029;50.804;12.866;2022-07-04T11:56:52;2.60;;;1.30;;
49193;SDS011;35029;50.804;12.866;2022-07-04T11:59:17;1.88;;;1.30;;
49193;SDS011;35029;50.804;12.866;2022-07-04T12:01:44;2.80;;;1.25;;
49193;SDS011;35029;50.804;12.866;2022-07-04T12:04:11;2.20;;;1.63;;
49193;SDS011;35029;50.804;12.866;2022-07-04T12:06:44;2.47;;;1.40;;
49193;SDS011;35029;50.804;12.866;2022-07-04T12:09:11;1.80;;;1.35;;
49193;SDS011;35029;50.804;12.866;2022-07-04T12:12:11;7.20;;;1.80;;
49193;SDS011;35029;50.804;12.866;2022-07-04T12:14:29;2.22;;;1.38;;
49193;SDS011;35029;50.804;12.866;2022-07-04T12:19:57;4.82;;;1.52;;
49193;SDS011;35029;50.804;12.866;2022-07-04T12:22:31;3.40;;;1.50;;
49193;SDS011;35029;50.804;12.866;2022-07-04T12:25:01;3.70;;;1.67;;
49193;SDS011;35029;50.804;12.866;2022-07-04T12:27:29;7.95;;;1.60;;
49193;SDS011;35029;50.804;12.866;2022-07-04T12:29:56;1.52;;;1.42;;
49193;SDS011;35029;50.804;12.866;2022-07-04T12:32:24;5.13;;;1.50;;
49193;SDS011;35029;50.804;12.866;2022-07-04T12:35:08;5.45;;;1.65;;
49193;SDS011;35029;50.804;12.866;2022-07-04T12:37:34;4.70;;;1.48;;
49193;SDS011;35029;50.804;12.866;2022-07-04T12:40:09;3.38;;;1.52;;
49193;SDS011;35029;50.804;12.866;2022-07-04T12:42:35;3.95;;;1.52;;
49193;SDS011;35029;50.804;12.866;2022-07-04T12:45:05;5.72;;;1.35;;
49193;SDS011;35029;50.804;12.866;2022-07-04T12:47:31;1.80;;;1.05;;
49193;SDS011;35029;50.804;12.866;2022-07-04T12:49:57;5.00;;;1.45;;
49193;SDS011;35029;50.804;12.866;2022-07-04T12:52:26;8.63;;;1.33;;
49193;SDS011;35029;50.804;12.866;2022-07-04T12:55:03;6.53;;;1.90;;
49193;SDS011;35029;50.804;12.866;2022-07-04T12:57:32;2.75;;;1.60;;
49193;SDS011;35029;50.804;12.866;2022-07-04T12:59:57;2.00;;;1.40;;
49193;SDS011;35029;50.804;12.866;2022-07-04T13:02:23;3.97;;;1.48;;
49193;SDS011;35029;50.804;12.866;2022-07-04T13:04:48;3.40;;;1.48;;
49193;SDS011;35029;50.804;12.866;2022-07-04T13:07:16;4.07;;;1.35;;
49193;SDS011;35029;50.804;12.866;2022-07-04T13:09:43;5.13;;;1.50;;
49193;SDS011;35029;50.804;12.866;2022-07-04T13:12:10;2.08;;;1.30;;
49193;SDS011;35029;50.804;12.866;2022-07-04T13:14:56;4.65;;;1.35;;
49193;SDS011;35029;50.804;12.866;2022-07-04T13:17:24;5.22;;;1.13;;
49193;SDS011;35029;50.804;12.866;2022-07-04T13:19:50;2.28;;;1.10;;
49193;SDS011;35029;50.804;12.866;2022-07-04T13:22:20;9.55;;;1.30;;
49193;SDS011;35029;50.804;12.866;2022-07-04T13:24:46;2.38;;;1.50;;
49193;SDS011;35029;50.804;12.866;2022-07-04T13:27:12;1.98;;;1.20;;
49193;SDS011;35029;50.804;12.866;2022-07-04T13:29:37;2.70;;;1.00;;
49193;SDS011;35029;50.804;12.866;2022-07-04T13:32:03;3.35;;;1.08;;
49193;SDS011;35029;50.804;12.866;2022-07-04T13:34:30;1.98;;;1.23;;
49193;SDS011;35029;50.804;12.866;2022-07-04T13:36:56;4.60;;;1.33;;
49193;SDS011;35029;50.804;12.866;2022-07-04T13:39:22;4.18;;;1.20;;
49193;SDS011;35029;50.804;12.866;2022-07-04T13:41:48;2.45;;;1.10;;
49193;SDS011;35029;50.804;12.866;2022-07-04T13:44:14;3.50;;;1.13;;
49193;SDS011;35029;50.804;12.866;2022-07-04T13:46:41;2.45;;;1.33;;
49193;SDS011;35029;50.804;12.866;2022-07-04T13:49:07;2.45;;;1.20;;
49193;SDS011;35029;50.804;12.866;2022-07-04T13:51:34;3.50;;;1.30;;
49193;SDS011;35029;50.804;12.866;2022-07-04T13:54:01;2.30;;;1.38;;
49193;SDS011;35029;50.804;12.866;2022-07-04T13:56:26;1.50;;;1.10;;
49193;SDS011;35029;50.804;12.866;2022-07-04T13:58:52;3.42;;;1.23;;
49193;SDS011;35029;50.804;12.866;2022-07-04T14:01:18;4.03;;;1.63;;
49193;SDS011;35029;50.804;12.866;2022-07-04T14:03:48;4.55;;;1.08;;
49193;SDS011;35029;50.804;12.866;2022-07-04T14:06:15;3.33;;;1.20;;
49193;SDS011;35029;50.804;12.866;2022-07-04T14:08:42;1.50;;;1.30;;
49193;SDS011;35029;50.804;12.866;2022-07-04T14:11:07;2.88;;;1.35;;
49193;SDS011;35029;50.804;12.866;2022-07-04T14:13:33;4.38;;;1.65;;
49193;SDS011;35029;50.804;12.866;2022-07-04T14:15:58;2.83;;;1.40;;
49193;SDS011;35029;50.804;12.866;2022-07-04T14:18:24;1.75;;;1.00;;
49193;SDS011;35029;50.804;12.866;2022-07-04T14:20:50;4.55;;;1.30;;
49193;SDS011;35029;50.804;12.866;2022-07-04T14:23:15;1.70;;;1.17;;
49193;SDS011;35029;50.804;12.866;2022-07-04T14:26:04;3.40;;;1.40;;
49193;SDS011;35029;50.804;12.866;2022-07-04T14:28:30;2.42;;;1.00;;
49193;SDS011;35029;50.804;12.866;2022-07-04T14:30:56;4.38;;;1.17;;
49193;SDS011;35029;50.804;12.866;2022-07-04T14:33:22;2.95;;;1.25;;
49193;SDS011;35029;50.804;12.866;2022-07-04T14:35:48;4.35;;;1.30;;
49193;SDS011;35029;50.804;12.866;2022-07-04T14:38:13;2.20;;;1.13;;
49193;SDS011;35029;50.804;12.866;2022-07-04T14:40:39;3.67;;;1.30;;
49193;SDS011;35029;50.804;12.866;2022-07-04T14:43:08;1.77;;;1.00;;
49193;SDS011;35029;50.804;12.866;2022-07-04T14:45:33;3.28;;;1.05;;
49193;SDS011;35029;50.804;12.866;2022-07-04T14:47:59;4.82;;;1.23;;
49193;SDS011;35029;50.804;12.866;2022-07-04T14:50:24;3.35;;;1.20;;
49193;SDS011;35029;50.804;12.866;2022-07-04T14:52:50;5.57;;;1.20;;
49193;SDS011;35029;50.804;12.866;2022-07-04T14:55:15;2.63;;;1.15;;